sensor_id;sensor_type;location;lat;lon;timestamp;P1;durP1;ratioP1;P2;durP2;ratioP2
12222;SDS011;6174;49.058;8.524;2023-12-22T06:02:55;3.20;;;1.53;;
12222;SDS011;6174;49.058;8.524;2023-12-22T06:05:22;5.27;;;1.90;;
12222;SDS011;6174;49.058;8.524;2023-12-22T06:07:49;6.13;;;2.00;;
12222;SDS011;6174;49.058;8.524;2023-12-22T06:10:16;4.17;;;1.30;;
12222;SDS011;6174;49.058;8.524;2023-12-22T06:12:43;3.70;;;1.03;;
12222;SDS011;6174;49.058;8.524;2023-12-22T06:23:31;3.97;;;1.30;;
12222;SDS011;6174;49.058;8.524;2023-12-22T06:26:11;5.93;;;2.20;;
12222;SDS011;6174;49.058;8.524;2023-12-22T06:29:08;2.47;;;1.57;;
12222;SDS011;6174;49.058;8.524;2023-12-22T06:31:35;2.47;;;1.50;;
12222;SDS011;6174;49.058;8.524;2023-12-22T06:34:19;5.00;;;1.70;;
12222;SDS011;6174;49.058;8.524;2023-12-22T06:36:46;3.47;;;1.57;;
12222;SDS011;6174;49.058;8.524;2023-12-22T06:39:14;4.83;;;1.77;;
12222;SDS011;6174;49.058;8.524;2023-12-22T06:41:44;3.17;;;1.20;;
12222;SDS011;6174;49.058;8.524;2023-12-22T06:44:16;6.73;;;2.63;;
12222;SDS011;6174;49.058;8.524;2023-12-22T06:49:38;5.20;;;1.80;;
12222;SDS011;6174;49.058;8.524;2023-12-22T06:52:06;0.80;;;0.80;;
12222;SDS011;6174;49.058;8.524;2023-12-22T06:54:38;5.03;;;1.60;;
12222;SDS011;6174;49.058;8.524;2023-12-22T06:57:05;4.37;;;1.50;;
12222;SDS011;6174;49.058;8.524;2023-12-22T06:59:36;4.33;;;1.50;;
12222;SDS011;6174;49.058;8.524;2023-12-22T07:02:15;4.50;;;1.70;;
12222;SDS011;6174;49.058;8.524;2023-12-22T07:10:58;5.43;;;2.40;;
12222;SDS011;6174;49.058;8.524;2023-12-22T07:13:24;4.73;;;1.60;;
12222;SDS011;6174;49.058;8.524;2023-12-22T07:15:51;3.77;;;1.70;;
12222;SDS011;6174;49.058;8.524;2023-12-22T07:18:18;6.97;;;1.93;;
12222;SDS011;6174;49.058;8.524;2023-12-22T07:20:45;7.33;;;2.20;;
12222;SDS011;6174;49.058;8.524;2023-12-22T07:23:11;8.37;;;2.17;;
12222;SDS011;6174;49.058;8.524;2023-12-22T07:25:38;6.27;;;2.10;;
12222;SDS011;6174;49.058;8.524;2023-12-22T07:28:06;3.77;;;1.50;;
12222;SDS011;6174;49.058;8.524;2023-12-22T07:30:33;5.07;;;2.20;;
12222;SDS011;6174;49.058;8.524;2023-12-22T07:33:00;5.93;;;2.40;;
12222;SDS011;6174;49.058;8.524;2023-12-22T07:35:27;5.43;;;2.03;;
12222;SDS011;6174;49.058;8.524;2023-12-22T07:37:54;5.67;;;2.30;;
12222;SDS011;6174;49.058;8.524;2023-12-22T07:40:20;4.97;;;1.97;;
12222;SDS011;6174;49.058;8.524;2023-12-22T07:42:47;6.10;;;2.30;;
12222;SDS011;6174;49.058;8.524;2023-12-22T07:45:17;6.40;;;2.43;;
12222;SDS011;6174;49.058;8.524;2023-12-22T07:47:43;6.83;;;2.47;;
12222;SDS011;6174;49.058;8.524;2023-12-22T07:50:11;6.60;;;2.20;;
12222;SDS011;6174;49.058;8.524;2023-12-22T07:52:38;6.80;;;3.37;;
12222;SDS011;6174;49.058;8.524;2023-12-22T07:55:05;5.80;;;2.03;;
12222;SDS011;6174;49.058;8.524;2023-12-22T07:57:34;8.90;;;2.70;;
12222;SDS011;6174;49.058;8.524;2023-12-22T08:00:02;7.63;;;2.77;;
12222;SDS011;6174;49.058;8.524;2023-12-22T08:02:30;6.37;;;2.73;;
12222;SDS011;6174;49.058;8.524;2023-12-22T08:04:57;6.27;;;2.43;;
12222;SDS011;6174;49.058;8.524;2023-12-22T08:07:24;9.37;;;2.80;;
12222;SDS011;6174;49.058;8.524;2023-12-22T08:09:51;7.97;;;2.77;;
12222;SDS011;6174;49.058;8.524;2023-12-22T08:12:18;7.20;;;2.87;;
12222;SDS011;6174;49.058;8.524;2023-12-22T08:14:45;7.73;;;3.17;;
12222;SDS011;6174;49.058;8.524;2023-12-22T08:17:11;8.40;;;2.67;;
12222;SDS011;6174;49.058;8.524;2023-12-22T08:19:40;9.17;;;2.97;;
12222;SDS011;6174;49.058;8.524;2023-12-22T08:22:08;7.10;;;3.07;;
12222;SDS011;6174;49.058;8.524;2023-12-22T08:24:35;9.93;;;2.80;;
12222;SDS011;6174;49.058;8.524;2023-12-22T08:27:01;9.23;;;3.10;;
12222;SDS011;6174;49.058;8.524;2023-12-22T08:29:28;9.53;;;2.87;;
12222;SDS011;6174;49.058;8.524;2023-12-22T08:31:55;5.63;;;2.60;;
12222;SDS011;6174;49.058;8.524;2023-12-22T08:34:21;7.33;;;2.60;;
12222;SDS011;6174;49.058;8.524;2023-12-22T08:36:49;10.63;;;3.10;;
12222;SDS011;6174;49.058;8.524;2023-12-22T08:39:16;7.90;;;2.57;;
12222;SDS011;6174;49.058;8.524;2023-12-22T08:41:43;9.47;;;3.00;;
12222;SDS011;6174;49.058;8.524;2023-12-22T08:44:10;9.97;;;3.20;;
12222;SDS011;6174;49.058;8.524;2023-12-22T08:46:39;9.30;;;2.80;;
12222;SDS011;6174;49.058;8.524;2023-12-22T08:49:06;7.73;;;3.00;;
12222;SDS011;6174;49.058;8.524;2023-12-22T08:51:33;9.23;;;3.07;;
12222;SDS011;6174;49.058;8.524;2023-12-22T08:54:01;2.43;;;1.60;;
12222;SDS011;6174;49.058;8.524;2023-12-22T08:56:29;8.40;;;2.73;;
12222;SDS011;6174;49.058;8.524;2023-12-22T08:58:56;8.37;;;2.60;;
12222;SDS011;6174;49.058;8.524;2023-12-22T09:01:25;9.43;;;2.60;;
12222;SDS011;6174;49.058;8.524;2023-12-22T09:03:52;8.80;;;3.33;;
12222;SDS011;6174;49.058;8.524;2023-12-22T09:06:19;8.53;;;2.80;;
12222;SDS011;6174;49.058;8.524;2023-12-22T09:08:48;5.07;;;2.13;;
12222;SDS011;6174;49.058;8.524;2023-12-22T09:11:17;8.37;;;2.80;;
12222;SDS011;6174;49.058;8.524;2023-12-22T09:13:46;6.47;;;2.83;;
12222;SDS011;6174;49.058;8.524;2023-12-22T09:16:13;9.90;;;3.20;;
12222;SDS011;6174;49.058;8.524;2023-12-22T09:18:43;8.20;;;3.00;;
12222;SDS011;6174;49.058;8.524;2023-12-22T09:21:09;9.80;;;3.13;;
12222;SDS011;6174;49.058;8.524;2023-12-22T09:23:36;8.03;;;2.57;;
12222;SDS011;6174;49.058;8.524;2023-12-22T09:26:03;7.07;;;3.00;;
12222;SDS011;6174;49.058;8.524;2023-12-22T09:28:31;8.13;;;2.47;;
12222;SDS011;6174;49.058;8.524;2023-12-22T09:30:58;10.93;;;2.20;;
12222;SDS011;6174;49.058;8.524;2023-12-22T09:33:25;8.43;;;3.00;;
12222;SDS011;6174;49.058;8.524;2023-12-22T09:35:51;10.57;;;3.30;;
12222;SDS011;6174;49.058;8.524;2023-12-22T09:38:18;11.17;;;3.00;;
12222;SDS011;6174;49.058;8.524;2023-12-22T09:40:47;9.87;;;2.70;;
12222;SDS011;6174;49.058;8.524;2023-12-22T09:43:14;9.40;;;3.03;;
12222;SDS011;6174;49.058;8.524;2023-12-22T09:45:44;7.60;;;2.73;;
12222;SDS011;6174;49.058;8.524;2023-12-22T09:48:12;9.80;;;3.70;;
12222;SDS011;6174;49.058;8.524;2023-12-22T09:50:41;9.53;;;2.90;;
12222;SDS011;6174;49.058;8.524;2023-12-22T09:53:09;11.20;;;3.13;;
12222;SDS011;6174;49.058;8.524;2023-12-22T09:55:38;7.97;;;3.20;;
12222;SDS011;6174;49.058;8.524;2023-12-22T09:58:06;9.80;;;3.07;;
12222;SDS011;6174;49.058;8.524;2023-12-22T10:00:34;8.70;;;2.80;;
12222;SDS011;6174;49.058;8.524;2023-12-22T10:03:03;10.27;;;2.90;;
12222;SDS011;6174;49.058;8.524;2023-12-22T10:05:31;10.83;;;3.17;;
12222;SDS011;6174;49.058;8.524;2023-12-22T10:07:59;11.47;;;3.33;;
12222;SDS011;6174;49.058;8.524;2023-12-22T10:10:30;8.20;;;3.27;;
12222;SDS011;6174;49.058;8.524;2023-12-22T10:12:58;7.87;;;2.83;;
12222;SDS011;6174;49.058;8.524;2023-12-22T10:15:28;9.20;;;3.53;;
12222;SDS011;6174;49.058;8.524;2023-12-22T10:17:56;10.73;;;3.10;;
12222;SDS011;6174;49.058;8.524;2023-12-22T10:20:25;6.70;;;2.50;;
12222;SDS011;6174;49.058;8.524;2023-12-22T10:22:51;8.40;;;2.83;;
12222;SDS011;6174;49.058;8.524;2023-12-22T10:25:20;7.90;;;2.87;;
12222;SDS011;6174;49.058;8.524;2023-12-22T10:27:54;5.47;;;2.77;;
12222;SDS011;6174;49.058;8.524;2023-12-22T10:30:21;9.13;;;3.40;;
12222;SDS011;6174;49.058;8.524;2023-12-22T10:32:51;6.83;;;2.60;;
12222;SDS011;6174;49.058;8.524;2023-12-22T10:35:19;9.80;;;3.07;;
12222;SDS011;6174;49.058;8.524;2023-12-22T10:37:48;8.70;;;2.73;;
12222;SDS011;6174;49.058;8.524;2023-12-22T10:40:17;8.00;;;2.40;;
12222;SDS011;6174;49.058;8.524;2023-12-22T10:42:44;6.53;;;2.73;;
12222;SDS011;6174;49.058;8.524;2023-12-22T10:45:11;9.43;;;2.30;;
12222;SDS011;6174;49.058;8.524;2023-12-22T10:47:38;5.87;;;2.70;;
12222;SDS011;6174;49.058;8.524;2023-12-22T10:50:06;10.97;;;3.23;;
12222;SDS011;6174;49.058;8.524;2023-12-22T10:52:33;7.83;;;2.70;;
12222;SDS011;6174;49.058;8.524;2023-12-22T10:55:01;10.43;;;3.20;;
12222;SDS011;6174;49.058;8.524;2023-12-22T10:57:28;8.03;;;2.60;;
12222;SDS011;6174;49.058;8.524;2023-12-22T11:00:02;6.83;;;2.43;;
12222;SDS011;6174;49.058;8.524;2023-12-22T11:02:32;11.27;;;3.37;;
12222;SDS011;6174;49.058;8.524;2023-12-22T11:05:02;7.40;;;3.10;;
12222;SDS011;6174;49.058;8.524;2023-12-22T11:07:30;6.57;;;2.80;;
12222;SDS011;6174;49.058;8.524;2023-12-22T11:10:01;9.37;;;3.40;;
12222;SDS011;6174;49.058;8.524;2023-12-22T11:12:31;7.57;;;3.50;;
12222;SDS011;6174;49.058;8.524;2023-12-22T11:14:59;10.87;;;3.23;;
12222;SDS011;6174;49.058;8.524;2023-12-22T11:17:28;6.53;;;2.97;;
12222;SDS011;6174;49.058;8.524;2023-12-22T11:19:57;9.00;;;3.03;;
12222;SDS011;6174;49.058;8.524;2023-12-22T11:22:24;7.03;;;2.77;;
12222;SDS011;6174;49.058;8.524;2023-12-22T11:24:52;8.73;;;2.70;;
12222;SDS011;6174;49.058;8.524;2023-12-22T11:27:23;6.40;;;2.57;;
12222;SDS011;6174;49.058;8.524;2023-12-22T11:29:53;7.03;;;2.67;;
12222;SDS011;6174;49.058;8.524;2023-12-22T11:32:21;8.53;;;2.50;;
12222;SDS011;6174;49.058;8.524;2023-12-22T11:34:48;7.87;;;2.47;;
12222;SDS011;6174;49.058;8.524;2023-12-22T11:37:15;6.57;;;2.40;;
12222;SDS011;6174;49.058;8.524;2023-12-22T11:39:43;4.30;;;2.10;;
12222;SDS011;6174;49.058;8.524;2023-12-22T11:42:12;6.13;;;2.73;;
12222;SDS011;6174;49.058;8.524;2023-12-22T11:44:44;4.87;;;1.67;;
12222;SDS011;6174;49.058;8.524;2023-12-22T11:47:11;5.90;;;2.13;;
12222;SDS011;6174;49.058;8.524;2023-12-22T11:49:40;6.47;;;2.60;;
12222;SDS011;6174;49.058;8.524;2023-12-22T11:52:11;6.33;;;1.83;;
12222;SDS011;6174;49.058;8.524;2023-12-22T11:54:45;5.33;;;2.07;;
12222;SDS011;6174;49.058;8.524;2023-12-22T11:57:28;4.90;;;1.83;;
12222;SDS011;6174;49.058;8.524;2023-12-22T11:59:58;6.53;;;2.17;;
12222;SDS011;6174;49.058;8.524;2023-12-22T12:02:29;6.23;;;2.30;;
12222;SDS011;6174;49.058;8.524;2023-12-22T12:04:57;4.60;;;1.87;;
12222;SDS011;6174;49.058;8.524;2023-12-22T12:07:41;3.33;;;2.17;;
12222;SDS011;6174;49.058;8.524;2023-12-22T12:10:13;4.27;;;1.73;;
12222;SDS011;6174;49.058;8.524;2023-12-22T12:13:16;4.40;;;1.80;;
12222;SDS011;6174;49.058;8.524;2023-12-22T12:15:51;4.67;;;1.63;;
12222;SDS011;6174;49.058;8.524;2023-12-22T12:18:21;3.73;;;1.40;;
12222;SDS011;6174;49.058;8.524;2023-12-22T12:20:48;2.03;;;1.20;;
12222;SDS011;6174;49.058;8.524;2023-12-22T12:23:16;4.80;;;1.40;;
12222;SDS011;6174;49.058;8.524;2023-12-22T12:25:43;2.17;;;1.50;;
12222;SDS011;6174;49.058;8.524;2023-12-22T12:28:09;2.43;;;1.20;;
12222;SDS011;6174;49.058;8.524;2023-12-22T12:30:37;3.93;;;1.67;;
12222;SDS011;6174;49.058;8.524;2023-12-22T12:33:07;3.17;;;1.63;;
12222;SDS011;6174;49.058;8.524;2023-12-22T12:35:34;3.30;;;1.63;;
12222;SDS011;6174;49.058;8.524;2023-12-22T12:38:02;2.67;;;1.60;;
12222;SDS011;6174;49.058;8.524;2023-12-22T12:40:29;2.50;;;1.37;;
12222;SDS011;6174;49.058;8.524;2023-12-22T12:42:58;2.30;;;1.33;;
12222;SDS011;6174;49.058;8.524;2023-12-22T12:45:26;2.77;;;1.20;;
12222;SDS011;6174;49.058;8.524;2023-12-22T12:47:56;1.53;;;1.40;;
12222;SDS011;6174;49.058;8.524;2023-12-22T12:50:25;1.97;;;1.27;;
12222;SDS011;6174;49.058;8.524;2023-12-22T12:52:53;3.33;;;1.60;;
12222;SDS011;6174;49.058;8.524;2023-12-22T12:55:21;2.13;;;1.23;;
12222;SDS011;6174;49.058;8.524;2023-12-22T12:57:48;2.53;;;1.40;;
12222;SDS011;6174;49.058;8.524;2023-12-22T13:00:16;2.13;;;1.27;;
12222;SDS011;6174;49.058;8.524;2023-12-22T13:02:50;1.93;;;1.20;;
12222;SDS011;6174;49.058;8.524;2023-12-22T13:05:20;1.57;;;1.47;;
12222;SDS011;6174;49.058;8.524;2023-12-22T13:07:49;1.00;;;1.00;;
12222;SDS011;6174;49.058;8.524;2023-12-22T13:10:19;1.30;;;1.20;;
12222;SDS011;6174;49.058;8.524;2023-12-22T13:12:47;1.57;;;1.20;;
12222;SDS011;6174;49.058;8.524;2023-12-22T13:15:14;1.90;;;1.27;;
12222;SDS011;6174;49.058;8.524;2023-12-22T13:17:43;1.00;;;0.90;;
12222;SDS011;6174;49.058;8.524;2023-12-22T13:20:10;0.67;;;0.67;;
12222;SDS011;6174;49.058;8.524;2023-12-22T13:22:37;0.77;;;0.73;;
12222;SDS011;6174;49.058;8.524;2023-12-22T13:25:06;2.23;;;0.80;;
12222;SDS011;6174;49.058;8.524;2023-12-22T13:27:43;0.93;;;0.70;;
12222;SDS011;6174;49.058;8.524;2023-12-22T13:30:11;0.97;;;0.70;;
12222;SDS011;6174;49.058;8.524;2023-12-22T13:32:38;0.70;;;0.50;;
12222;SDS011;6174;49.058;8.524;2023-12-22T13:35:05;0.40;;;0.40;;
12222;SDS011;6174;49.058;8.524;2023-12-22T13:37:32;1.23;;;0.70;;
12222;SDS011;6174;49.058;8.524;2023-12-22T13:39:59;0.53;;;0.53;;
12222;SDS011;6174;49.058;8.524;2023-12-22T13:42:28;0.80;;;0.70;;
12222;SDS011;6174;49.058;8.524;2023-12-22T13:44:55;0.90;;;0.80;;
12222;SDS011;6174;49.058;8.524;2023-12-22T13:47:22;1.53;;;0.90;;
12222;SDS011;6174;49.058;8.524;2023-12-22T13:49:48;1.17;;;0.80;;
12222;SDS011;6174;49.058;8.524;2023-12-22T13:52:25;1.37;;;0.80;;
12222;SDS011;6174;49.058;8.524;2023-12-22T13:54:53;0.80;;;0.80;;
12222;SDS011;6174;49.058;8.524;2023-12-22T13:57:21;0.60;;;0.60;;
12222;SDS011;6174;49.058;8.524;2023-12-22T13:59:50;0.50;;;0.50;;
12222;SDS011;6174;49.058;8.524;2023-12-22T14:02:19;0.57;;;0.57;;
12222;SDS011;6174;49.058;8.524;2023-12-22T14:04:47;1.17;;;0.60;;
12222;SDS011;6174;49.058;8.524;2023-12-22T14:07:14;0.60;;;0.60;;
12222;SDS011;6174;49.058;8.524;2023-12-22T14:09:40;0.50;;;0.40;;
12222;SDS011;6174;49.058;8.524;2023-12-22T14:12:07;0.60;;;0.60;;
12222;SDS011;6174;49.058;8.524;2023-12-22T14:14:34;0.30;;;0.30;;
12222;SDS011;6174;49.058;8.524;2023-12-22T14:17:02;0.47;;;0.47;;
12222;SDS011;6174;49.058;8.524;2023-12-22T14:19:29;0.57;;;0.57;;
12222;SDS011;6174;49.058;8.524;2023-12-22T14:21:56;0.50;;;0.50;;
12222;SDS011;6174;49.058;8.524;2023-12-22T14:24:24;0.50;;;0.40;;
12222;SDS011;6174;49.058;8.524;2023-12-22T14:26:52;0.83;;;0.57;;
12222;SDS011;6174;49.058;8.524;2023-12-22T14:29:21;0.57;;;0.57;;
12222;SDS011;6174;49.058;8.524;2023-12-22T14:31:48;0.50;;;0.50;;
12222;SDS011;6174;49.058;8.524;2023-12-22T14:34:17;0.50;;;0.50;;
12222;SDS011;6174;49.058;8.524;2023-12-22T14:36:44;0.30;;;0.30;;
12222;SDS011;6174;49.058;8.524;2023-12-22T14:39:11;1.43;;;0.67;;
12222;SDS011;6174;49.058;8.524;2023-12-22T14:41:38;0.50;;;0.50;;
12222;SDS011;6174;49.058;8.524;2023-12-22T14:44:06;0.73;;;0.70;;
12222;SDS011;6174;49.058;8.524;2023-12-22T14:46:33;0.83;;;0.80;;
12222;SDS011;6174;49.058;8.524;2023-12-22T14:49:03;0.80;;;0.80;;
12222;SDS011;6174;49.058;8.524;2023-12-22T14:51:35;1.27;;;1.10;;
12222;SDS011;6174;49.058;8.524;2023-12-22T14:54:03;0.60;;;0.60;;
12222;SDS011;6174;49.058;8.524;2023-12-22T14:56:30;0.93;;;0.93;;
12222;SDS011;6174;49.058;8.524;2023-12-22T14:58:57;1.47;;;0.70;;
12222;SDS011;6174;49.058;8.524;2023-12-22T15:01:24;0.70;;;0.70;;
12222;SDS011;6174;49.058;8.524;2023-12-22T15:03:55;0.80;;;0.53;;
12222;SDS011;6174;49.058;8.524;2023-12-22T15:06:24;0.43;;;0.43;;
12222;SDS011;6174;49.058;8.524;2023-12-22T15:08:53;0.33;;;0.33;;
12222;SDS011;6174;49.058;8.524;2023-12-22T15:11:20;0.70;;;0.53;;
12222;SDS011;6174;49.058;8.524;2023-12-22T15:13:47;0.40;;;0.40;;
12222;SDS011;6174;49.058;8.524;2023-12-22T15:16:14;0.60;;;0.50;;
12222;SDS011;6174;49.058;8.524;2023-12-22T15:18:41;0.60;;;0.60;;
12222;SDS011;6174;49.058;8.524;2023-12-22T15:21:08;0.60;;;0.60;;
12222;SDS011;6174;49.058;8.524;2023-12-22T15:23:34;1.83;;;0.60;;
12222;SDS011;6174;49.058;8.524;2023-12-22T15:26:06;0.53;;;0.53;;
12222;SDS011;6174;49.058;8.524;2023-12-22T15:28:33;0.90;;;0.90;;
12222;SDS011;6174;49.058;8.524;2023-12-22T15:31:07;0.93;;;0.90;;
12222;SDS011;6174;49.058;8.524;2023-12-22T15:33:35;1.37;;;0.90;;
12222;SDS011;6174;49.058;8.524;2023-12-22T15:36:02;1.13;;;1.00;;
12222;SDS011;6174;49.058;8.524;2023-12-22T15:38:31;1.20;;;1.10;;
12222;SDS011;6174;49.058;8.524;2023-12-22T15:40:59;0.60;;;0.60;;
12222;SDS011;6174;49.058;8.524;2023-12-22T15:43:27;0.80;;;0.57;;
12222;SDS011;6174;49.058;8.524;2023-12-22T15:45:54;0.67;;;0.60;;
12222;SDS011;6174;49.058;8.524;2023-12-22T15:48:21;0.80;;;0.80;;
12222;SDS011;6174;49.058;8.524;2023-12-22T15:50:49;0.70;;;0.67;;
12222;SDS011;6174;49.058;8.524;2023-12-22T15:53:22;0.80;;;0.60;;
12222;SDS011;6174;49.058;8.524;2023-12-22T15:55:54;1.13;;;0.47;;
12222;SDS011;6174;49.058;8.524;2023-12-22T15:58:32;0.60;;;0.60;;
12222;SDS011;6174;49.058;8.524;2023-12-22T16:01:00;1.33;;;0.87;;
12222;SDS011;6174;49.058;8.524;2023-12-22T16:03:27;1.20;;;1.10;;
12222;SDS011;6174;49.058;8.524;2023-12-22T16:05:57;0.97;;;0.57;;
12222;SDS011;6174;49.058;8.524;2023-12-22T16:09:16;0.80;;;0.80;;
12222;SDS011;6174;49.058;8.524;2023-12-22T16:18:42;1.20;;;0.40;;
12222;SDS011;6174;49.058;8.524;2023-12-22T16:21:46;0.63;;;0.37;;
12222;SDS011;6174;49.058;8.524;2023-12-22T16:27:39;1.30;;;0.77;;
12222;SDS011;6174;49.058;8.524;2023-12-22T16:30:13;0.70;;;0.60;;
12222;SDS011;6174;49.058;8.524;2023-12-22T16:32:47;0.50;;;0.50;;
12222;SDS011;6174;49.058;8.524;2023-12-22T16:35:22;0.87;;;0.57;;
12222;SDS011;6174;49.058;8.524;2023-12-22T16:38:11;1.20;;;0.57;;
12222;SDS011;6174;49.058;8.524;2023-12-22T16:40:39;1.03;;;0.90;;
12222;SDS011;6174;49.058;8.524;2023-12-22T16:43:29;1.03;;;0.70;;
12222;SDS011;6174;49.058;8.524;2023-12-22T16:46:13;0.73;;;0.60;;
12222;SDS011;6174;49.058;8.524;2023-12-22T16:48:43;2.10;;;0.73;;
12222;SDS011;6174;49.058;8.524;2023-12-22T16:57:44;0.50;;;0.50;;
12222;SDS011;6174;49.058;8.524;2023-12-22T17:00:13;0.50;;;0.40;;
12222;SDS011;6174;49.058;8.524;2023-12-22T17:02:55;0.50;;;0.50;;
12222;SDS011;6174;49.058;8.524;2023-12-22T17:05:24;0.67;;;0.67;;
12222;SDS011;6174;49.058;8.524;2023-12-22T17:07:50;0.93;;;0.60;;
12222;SDS011;6174;49.058;8.524;2023-12-22T17:10:19;0.60;;;0.60;;
12222;SDS011;6174;49.058;8.524;2023-12-22T17:12:49;0.97;;;0.60;;
12222;SDS011;6174;49.058;8.524;2023-12-22T17:15:26;0.40;;;0.40;;
12222;SDS011;6174;49.058;8.524;2023-12-22T17:18:09;0.53;;;0.53;;
12222;SDS011;6174;49.058;8.524;2023-12-22T17:20:41;1.67;;;0.70;;
12222;SDS011;6174;49.058;8.524;2023-12-22T17:23:16;0.87;;;0.70;;
12222;SDS011;6174;49.058;8.524;2023-12-22T17:25:51;0.60;;;0.60;;
12222;SDS011;6174;49.058;8.524;2023-12-22T17:28:18;0.80;;;0.80;;
12222;SDS011;6174;49.058;8.524;2023-12-22T17:30:45;1.20;;;1.10;;
12222;SDS011;6174;49.058;8.524;2023-12-22T17:33:14;1.30;;;1.13;;
12222;SDS011;6174;49.058;8.524;2023-12-22T17:35:49;0.97;;;0.90;;
12222;SDS011;6174;49.058;8.524;2023-12-22T17:38:29;0.60;;;0.60;;
12222;SDS011;6174;49.058;8.524;2023-12-22T17:41:18;0.60;;;0.60;;
12222;SDS011;6174;49.058;8.524;2023-12-22T17:44:21;0.63;;;0.63;;
12222;SDS011;6174;49.058;8.524;2023-12-22T17:46:49;1.07;;;0.70;;
12222;SDS011;6174;49.058;8.524;2023-12-22T17:49:36;0.70;;;0.70;;
12222;SDS011;6174;49.058;8.524;2023-12-22T17:52:03;1.00;;;0.87;;
12222;SDS011;6174;49.058;8.524;2023-12-22T17:54:32;1.40;;;1.20;;
12222;SDS011;6174;49.058;8.524;2023-12-22T17:59:58;0.80;;;0.63;;
12222;SDS011;6174;49.058;8.524;2023-12-22T18:02:41;1.10;;;0.90;;
12222;SDS011;6174;49.058;8.524;2023-12-22T18:05:23;1.57;;;0.90;;
12222;SDS011;6174;49.058;8.524;2023-12-22T18:07:52;1.03;;;0.70;;
12222;SDS011;6174;49.058;8.524;2023-12-22T18:10:18;1.20;;;0.90;;
12222;SDS011;6174;49.058;8.524;2023-12-22T18:12:59;1.13;;;1.03;;
12222;SDS011;6174;49.058;8.524;2023-12-22T18:15:27;0.73;;;0.70;;
12222;SDS011;6174;49.058;8.524;2023-12-22T18:17:59;2.13;;;1.13;;
12222;SDS011;6174;49.058;8.524;2023-12-22T18:23:22;2.20;;;1.20;;
12222;SDS011;6174;49.058;8.524;2023-12-22T18:25:57;0.70;;;0.70;;
12222;SDS011;6174;49.058;8.524;2023-12-22T18:28:35;1.27;;;0.90;;
12222;SDS011;6174;49.058;8.524;2023-12-22T18:31:02;1.00;;;0.90;;
12222;SDS011;6174;49.058;8.524;2023-12-22T18:33:30;2.00;;;0.77;;
12222;SDS011;6174;49.058;8.524;2023-12-22T18:35:57;0.70;;;0.70;;
12222;SDS011;6174;49.058;8.524;2023-12-22T18:38:25;1.23;;;0.73;;
12222;SDS011;6174;49.058;8.524;2023-12-22T18:40:56;1.37;;;0.80;;
12222;SDS011;6174;49.058;8.524;2023-12-22T18:43:23;1.23;;;0.70;;
12222;SDS011;6174;49.058;8.524;2023-12-22T18:45:54;1.57;;;0.70;;
12222;SDS011;6174;49.058;8.524;2023-12-22T18:48:22;0.87;;;0.70;;
12222;SDS011;6174;49.058;8.524;2023-12-22T18:51:02;1.33;;;0.73;;
12222;SDS011;6174;49.058;8.524;2023-12-22T18:53:32;1.03;;;0.80;;
12222;SDS011;6174;49.058;8.524;2023-12-22T18:55:59;0.63;;;0.60;;
12222;SDS011;6174;49.058;8.524;2023-12-22T18:58:32;0.90;;;0.70;;
12222;SDS011;6174;49.058;8.524;2023-12-22T19:01:04;1.67;;;0.70;;
12222;SDS011;6174;49.058;8.524;2023-12-22T19:03:34;1.00;;;0.90;;
12222;SDS011;6174;49.058;8.524;2023-12-22T19:06:20;1.53;;;0.90;;
12222;SDS011;6174;49.058;8.524;2023-12-22T19:08:52;0.73;;;0.73;;
12222;SDS011;6174;49.058;8.524;2023-12-22T19:14:08;0.97;;;0.80;;
12222;SDS011;6174;49.058;8.524;2023-12-22T19:16:38;1.93;;;0.90;;
12222;SDS011;6174;49.058;8.524;2023-12-22T19:19:05;1.63;;;1.17;;
12222;SDS011;6174;49.058;8.524;2023-12-22T19:21:33;1.67;;;1.00;;
12222;SDS011;6174;49.058;8.524;2023-12-22T19:24:11;1.10;;;1.00;;
12222;SDS011;6174;49.058;8.524;2023-12-22T19:26:49;1.00;;;0.90;;
12222;SDS011;6174;49.058;8.524;2023-12-22T19:29:20;1.90;;;1.00;;
12222;SDS011;6174;49.058;8.524;2023-12-22T19:31:50;1.93;;;1.03;;
12222;SDS011;6174;49.058;8.524;2023-12-22T19:34:29;1.13;;;1.00;;
12222;SDS011;6174;49.058;8.524;2023-12-22T19:36:56;1.37;;;1.10;;
12222;SDS011;6174;49.058;8.524;2023-12-22T19:39:24;1.87;;;1.10;;
12222;SDS011;6174;49.058;8.524;2023-12-22T19:42:17;1.20;;;1.00;;
12222;SDS011;6174;49.058;8.524;2023-12-22T19:44:54;1.73;;;1.10;;
12222;SDS011;6174;49.058;8.524;2023-12-22T19:50:36;2.17;;;1.03;;
12222;SDS011;6174;49.058;8.524;2023-12-22T19:53:03;2.47;;;1.10;;
12222;SDS011;6174;49.058;8.524;2023-12-22T19:55:30;2.23;;;1.30;;
12222;SDS011;6174;49.058;8.524;2023-12-22T19:59:01;2.57;;;1.13;;
12222;SDS011;6174;49.058;8.524;2023-12-22T20:01:29;1.23;;;1.03;;
12222;SDS011;6174;49.058;8.524;2023-12-22T20:04:35;1.63;;;1.00;;
12222;SDS011;6174;49.058;8.524;2023-12-22T20:07:09;1.97;;;0.90;;
12222;SDS011;6174;49.058;8.524;2023-12-22T20:09:39;1.00;;;0.90;;
12222;SDS011;6174;49.058;8.524;2023-12-22T20:12:07;2.37;;;0.93;;
12222;SDS011;6174;49.058;8.524;2023-12-22T20:14:37;1.57;;;1.23;;
12222;SDS011;6174;49.058;8.524;2023-12-22T20:17:04;1.80;;;1.13;;
12222;SDS011;6174;49.058;8.524;2023-12-22T20:19:39;1.50;;;1.10;;
12222;SDS011;6174;49.058;8.524;2023-12-22T20:22:24;2.53;;;1.37;;
12222;SDS011;6174;49.058;8.524;2023-12-22T20:24:59;3.27;;;1.63;;
12222;SDS011;6174;49.058;8.524;2023-12-22T20:27:26;2.93;;;1.40;;
12222;SDS011;6174;49.058;8.524;2023-12-22T20:29:57;2.67;;;1.13;;
12222;SDS011;6174;49.058;8.524;2023-12-22T20:32:24;2.30;;;1.50;;
12222;SDS011;6174;49.058;8.524;2023-12-22T20:35:15;2.40;;;1.43;;
12222;SDS011;6174;49.058;8.524;2023-12-22T20:37:44;3.10;;;1.27;;
12222;SDS011;6174;49.058;8.524;2023-12-22T20:40:11;2.50;;;1.40;;
12222;SDS011;6174;49.058;8.524;2023-12-22T20:45:06;2.50;;;1.30;;
12222;SDS011;6174;49.058;8.524;2023-12-22T20:47:37;4.43;;;1.20;;
12222;SDS011;6174;49.058;8.524;2023-12-22T20:50:04;3.50;;;1.40;;
12222;SDS011;6174;49.058;8.524;2023-12-22T20:52:31;2.93;;;1.63;;
12222;SDS011;6174;49.058;8.524;2023-12-22T20:55:00;4.50;;;1.67;;
12222;SDS011;6174;49.058;8.524;2023-12-22T20:57:28;3.30;;;1.40;;
12222;SDS011;6174;49.058;8.524;2023-12-22T20:59:55;2.80;;;1.50;;
12222;SDS011;6174;49.058;8.524;2023-12-22T21:02:21;3.60;;;1.43;;
12222;SDS011;6174;49.058;8.524;2023-12-22T21:04:49;4.90;;;1.60;;
12222;SDS011;6174;49.058;8.524;2023-12-22T21:07:16;2.20;;;1.50;;
12222;SDS011;6174;49.058;8.524;2023-12-22T21:09:48;4.07;;;1.70;;
12222;SDS011;6174;49.058;8.524;2023-12-22T21:12:16;1.57;;;1.10;;
12222;SDS011;6174;49.058;8.524;2023-12-22T21:14:43;3.57;;;1.30;;
12222;SDS011;6174;49.058;8.524;2023-12-22T21:17:09;2.87;;;1.50;;
12222;SDS011;6174;49.058;8.524;2023-12-22T21:19:36;1.20;;;0.83;;
12222;SDS011;6174;49.058;8.524;2023-12-22T21:22:03;2.83;;;1.20;;
12222;SDS011;6174;49.058;8.524;2023-12-22T21:24:30;3.23;;;1.60;;
12222;SDS011;6174;49.058;8.524;2023-12-22T21:27:00;3.93;;;1.27;;
12222;SDS011;6174;49.058;8.524;2023-12-22T21:29:28;3.07;;;1.10;;
12222;SDS011;6174;49.058;8.524;2023-12-22T21:31:55;6.43;;;1.63;;
12222;SDS011;6174;49.058;8.524;2023-12-22T21:34:24;3.00;;;1.23;;
12222;SDS011;6174;49.058;8.524;2023-12-22T21:36:50;3.13;;;1.30;;
12222;SDS011;6174;49.058;8.524;2023-12-22T21:39:17;2.77;;;1.60;;
12222;SDS011;6174;49.058;8.524;2023-12-22T21:41:44;2.77;;;1.50;;
12222;SDS011;6174;49.058;8.524;2023-12-22T21:44:15;3.90;;;1.77;;
12222;SDS011;6174;49.058;8.524;2023-12-22T21:46:43;4.20;;;1.33;;
12222;SDS011;6174;49.058;8.524;2023-12-22T21:49:11;2.80;;;1.50;;
12222;SDS011;6174;49.058;8.524;2023-12-22T21:51:37;3.20;;;1.33;;
12222;SDS011;6174;49.058;8.524;2023-12-22T21:54:05;2.87;;;1.30;;
12222;SDS011;6174;49.058;8.524;2023-12-22T21:56:32;2.43;;;1.40;;
12222;SDS011;6174;49.058;8.524;2023-12-22T21:58:59;2.67;;;1.53;;
12222;SDS011;6174;49.058;8.524;2023-12-22T22:01:26;2.07;;;1.43;;
12222;SDS011;6174;49.058;8.524;2023-12-22T22:03:54;3.47;;;1.40;;
12222;SDS011;6174;49.058;8.524;2023-12-22T22:06:21;3.13;;;1.50;;
12222;SDS011;6174;49.058;8.524;2023-12-22T22:08:48;4.03;;;1.47;;